createdAt,value
2023-08-02T00:02:14.001Z,2.27
2023-08-02T00:04:40.859Z,2.27
2023-08-02T00:07:07.665Z,2.30
2023-08-02T00:09:34.939Z,2.33
2023-08-02T00:12:03.397Z,2.37
2023-08-02T00:14:30.367Z,2.30
2023-08-02T00:16:57.141Z,2.03
2023-08-02T00:19:24.091Z,3.33
2023-08-02T00:21:50.872Z,2.07
2023-08-02T00:24:17.888Z,1.60
2023-08-02T00:26:46.460Z,2.00
2023-08-02T00:29:14.667Z,1.80
2023-08-02T00:31:41.500Z,2.20
2023-08-02T00:34:08.286Z,2.00
2023-08-02T00:36:35.138Z,2.00
2023-08-02T00:39:01.902Z,2.47
2023-08-02T00:41:28.638Z,2.10
2023-08-02T00:43:55.412Z,2.63
2023-08-02T00:46:23.865Z,2.53
2023-08-02T00:48:50.718Z,2.43
2023-08-02T00:51:19.642Z,3.10
2023-08-02T00:53:47.353Z,2.70
2023-08-02T00:56:16.024Z,2.53
2023-08-02T00:58:46.071Z,1.87
2023-08-02T01:01:13.073Z,2.10
2023-08-02T01:03:42.242Z,3.00
2023-08-02T01:06:16.451Z,2.80
2023-08-02T01:08:45.676Z,1.80
2023-08-02T01:11:18.769Z,2.20
2023-08-02T01:13:50.493Z,2.40
2023-08-02T01:16:17.760Z,2.60
2023-08-02T01:18:46.116Z,2.67
2023-08-02T01:21:14.202Z,3.50
2023-08-02T01:23:41.018Z,3.40
2023-08-02T01:26:07.860Z,2.90
2023-08-02T01:28:38.709Z,3.13
2023-08-02T01:31:06.649Z,2.33
2023-08-02T01:33:40.080Z,2.60
2023-08-02T01:36:07.207Z,2.97
2023-08-02T01:38:35.465Z,2.60
2023-08-02T01:41:02.245Z,2.73
2023-08-02T01:43:28.998Z,2.50
2023-08-02T01:45:55.783Z,2.23
2023-08-02T01:48:22.561Z,2.30
2023-08-02T01:50:49.417Z,2.47
2023-08-02T01:53:16.385Z,2.83
2023-08-02T01:55:44.604Z,2.67
2023-08-02T01:58:11.338Z,2.53
2023-08-02T02:00:38.135Z,2.53
2023-08-02T02:03:05.150Z,2.30
2023-08-02T02:05:32.033Z,2.90
2023-08-02T02:07:58.772Z,2.93
2023-08-02T02:10:25.498Z,2.20
2023-08-02T02:12:53.648Z,3.10
2023-08-02T02:15:20.489Z,3.07
2023-08-02T02:17:47.260Z,3.30
2023-08-02T02:20:14.094Z,2.30
2023-08-02T02:22:40.869Z,2.57
2023-08-02T02:25:08.337Z,3.20
2023-08-02T02:27:35.041Z,3.30
2023-08-02T02:30:03.452Z,2.90
2023-08-02T02:32:30.210Z,3.10
2023-08-02T02:34:56.980Z,2.93
2023-08-02T02:37:23.732Z,2.67
2023-08-02T02:39:50.492Z,3.10
2023-08-02T02:42:17.237Z,2.50
2023-08-02T02:44:44.612Z,3.40
2023-08-02T02:47:13.272Z,3.60
2023-08-02T02:49:40.202Z,3.23
2023-08-02T02:52:07.946Z,3.23
2023-08-02T02:54:34.678Z,2.77
2023-08-02T02:57:02.018Z,2.90
2023-08-02T02:59:28.879Z,4.10
2023-08-02T03:01:55.738Z,3.03
2023-08-02T03:04:23.856Z,3.10
2023-08-02T03:06:51.681Z,2.83
2023-08-02T03:09:18.674Z,3.50
2023-08-02T03:11:45.823Z,2.80
2023-08-02T03:14:13.038Z,3.17
2023-08-02T03:16:40.261Z,4.07
2023-08-02T03:19:07.233Z,2.80
2023-08-02T03:21:35.412Z,3.30
2023-08-02T03:24:02.287Z,2.73
2023-08-02T03:26:29.166Z,3.13
2023-08-02T03:28:56.091Z,3.50
2023-08-02T03:31:23.145Z,3.07
2023-08-02T03:33:49.958Z,2.77
2023-08-02T03:36:16.989Z,3.13
2023-08-02T03:38:45.100Z,2.23
2023-08-02T03:41:12.160Z,3.33
2023-08-02T03:43:38.971Z,3.20
2023-08-02T03:46:05.767Z,3.50
2023-08-02T03:48:32.516Z,3.30
2023-08-02T03:50:59.979Z,3.73
2023-08-02T03:53:27.203Z,3.00
2023-08-02T03:55:55.260Z,3.97
2023-08-02T03:58:22.173Z,3.30
2023-08-02T04:00:49.058Z,3.40
2023-08-02T04:03:15.765Z,2.70
2023-08-02T04:05:42.651Z,3.77
2023-08-02T04:08:09.448Z,3.47
2023-08-02T04:10:36.874Z,3.27
2023-08-02T04:13:05.069Z,3.30
2023-08-02T04:15:32.011Z,3.83
2023-08-02T04:17:58.887Z,3.07
2023-08-02T04:20:26.085Z,3.40
2023-08-02T04:22:53.002Z,3.30
2023-08-02T04:25:19.782Z,3.50
2023-08-02T04:27:46.499Z,3.53
2023-08-02T04:30:14.737Z,2.53
2023-08-02T04:32:41.629Z,3.20
2023-08-02T04:35:08.757Z,3.20
2023-08-02T04:37:35.558Z,3.70
2023-08-02T04:40:02.315Z,2.43
2023-08-02T04:42:29.161Z,2.60
2023-08-02T04:44:56.120Z,2.90
2023-08-02T04:47:24.291Z,2.80
2023-08-02T04:49:51.048Z,2.57
2023-08-02T04:52:17.817Z,2.77
2023-08-02T04:54:44.555Z,2.90
2023-08-02T04:57:11.324Z,3.07
2023-08-02T04:59:38.102Z,2.30
2023-08-02T05:02:05.182Z,2.93
2023-08-02T05:04:33.509Z,3.03
2023-08-02T05:07:00.396Z,3.00
2023-08-02T05:09:27.157Z,2.40
2023-08-02T05:11:53.968Z,2.70
2023-08-02T05:14:20.780Z,2.50
2023-08-02T05:16:47.540Z,2.23
2023-08-02T05:19:14.297Z,2.47
2023-08-02T05:21:42.524Z,2.30
2023-08-02T05:24:09.523Z,2.50
2023-08-02T05:26:36.313Z,2.10
2023-08-02T05:29:03.100Z,1.90
2023-08-02T05:31:29.935Z,2.80
2023-08-02T05:33:56.742Z,2.43
2023-08-02T05:36:23.511Z,2.40
2023-08-02T05:38:51.611Z,2.40
2023-08-02T05:41:18.346Z,2.67
2023-08-02T05:43:45.283Z,1.87
2023-08-02T05:46:12.343Z,2.30
2023-08-02T05:48:39.135Z,2.30
2023-08-02T05:51:05.915Z,2.23
2023-08-02T05:53:32.662Z,2.00
2023-08-02T05:56:00.851Z,2.00
2023-08-02T05:58:27.657Z,2.57
2023-08-02T06:00:54.421Z,2.30
2023-08-02T06:03:21.200Z,2.27
2023-08-02T06:05:48.008Z,2.07
2023-08-02T06:08:14.823Z,2.50
2023-08-02T06:10:41.776Z,2.47
2023-08-02T06:13:09.869Z,2.67
2023-08-02T06:15:36.666Z,1.73
2023-08-02T06:18:03.664Z,2.17
2023-08-02T06:20:30.495Z,2.20
2023-08-02T06:22:57.218Z,2.00
2023-08-02T06:25:24.076Z,2.13
2023-08-02T06:27:50.831Z,2.50
2023-08-02T06:30:18.954Z,2.00
2023-08-02T06:32:45.916Z,1.97
2023-08-02T06:35:13.117Z,1.80
2023-08-02T06:37:39.950Z,1.83
2023-08-02T06:40:08.131Z,1.90
2023-08-02T06:42:34.915Z,1.60
2023-08-02T06:45:01.633Z,1.63
2023-08-02T06:47:29.799Z,2.07
2023-08-02T06:49:56.601Z,1.57
2023-08-02T06:52:23.306Z,1.57
2023-08-02T06:54:52.782Z,1.70
2023-08-02T06:57:19.553Z,1.70
2023-08-02T06:59:46.313Z,1.20
2023-08-02T07:02:13.129Z,1.27
2023-08-02T07:04:41.377Z,2.10
2023-08-02T07:07:08.415Z,1.73
2023-08-02T07:09:35.163Z,1.87
2023-08-02T07:12:01.935Z,2.27
2023-08-02T07:14:28.683Z,1.50
2023-08-02T07:16:55.472Z,1.70
2023-08-02T07:19:22.212Z,2.00
2023-08-02T07:21:50.293Z,1.43
2023-08-02T07:24:17.173Z,1.00
2023-08-02T07:26:43.925Z,1.70
2023-08-02T07:29:10.701Z,1.90
2023-08-02T07:31:37.430Z,1.60
2023-08-02T07:34:04.213Z,1.50
2023-08-02T07:36:31.118Z,1.40
2023-08-02T07:38:59.276Z,1.80
2023-08-02T07:41:26.234Z,1.47
2023-08-02T07:43:53.076Z,1.33
2023-08-02T07:46:20.830Z,1.67
2023-08-02T07:48:47.954Z,1.50
2023-08-02T07:51:14.736Z,1.30
2023-08-02T07:53:41.470Z,1.90
2023-08-02T07:56:09.581Z,1.60
2023-08-02T07:58:36.388Z,2.30
2023-08-02T08:01:06.954Z,1.70
2023-08-02T08:03:33.784Z,1.63
2023-08-02T08:06:00.639Z,1.70
2023-08-02T08:08:27.467Z,2.20
2023-08-02T08:10:54.571Z,2.10
2023-08-02T08:13:22.653Z,1.43
2023-08-02T08:15:49.569Z,1.53
2023-08-02T08:18:16.397Z,1.67
2023-08-02T08:20:43.327Z,1.53
2023-08-02T08:23:10.226Z,1.50
2023-08-02T08:25:37.016Z,1.70
2023-08-02T08:28:04.163Z,1.83
2023-08-02T08:30:32.401Z,1.47
2023-08-02T08:32:59.299Z,1.73
2023-08-02T08:35:26.137Z,1.60
2023-08-02T08:37:53.123Z,1.83
2023-08-02T08:40:20.571Z,2.13
2023-08-02T08:42:51.719Z,1.50
2023-08-02T08:45:20.307Z,1.80
2023-08-02T08:47:49.543Z,1.43
2023-08-02T08:50:19.254Z,1.40
2023-08-02T08:52:47.699Z,1.60
2023-08-02T08:55:15.765Z,1.23
2023-08-02T08:57:43.673Z,1.47
2023-08-02T09:00:12.133Z,1.20
2023-08-02T09:02:39.850Z,1.47
2023-08-02T09:05:09.351Z,1.70
2023-08-02T09:07:36.151Z,1.93
2023-08-02T09:10:03.529Z,1.80
2023-08-02T09:12:42.542Z,1.87
2023-08-02T09:15:09.541Z,1.50
2023-08-02T09:17:47.858Z,1.93
2023-08-02T09:20:17.365Z,2.07
2023-08-02T09:22:44.332Z,2.50
2023-08-02T09:25:21.647Z,1.80
2023-08-02T09:27:48.893Z,1.60
2023-08-02T09:30:24.384Z,2.10
2023-08-02T09:32:59.809Z,2.20
2023-08-02T09:35:28.555Z,3.33
2023-08-02T09:37:55.323Z,2.30
2023-08-02T09:40:34.414Z,2.03
2023-08-02T09:43:02.138Z,2.17
2023-08-02T09:45:32.564Z,2.13
2023-08-02T09:47:59.611Z,2.63
2023-08-02T09:50:27.927Z,2.63
2023-08-02T09:52:55.552Z,1.87
2023-08-02T09:55:22.415Z,2.07
2023-08-02T09:57:49.921Z,2.07
2023-08-02T10:00:18.147Z,2.30
2023-08-02T10:02:46.759Z,2.50
2023-08-02T10:05:14.558Z,2.33
2023-08-02T10:07:46.563Z,2.27
2023-08-02T10:10:16.567Z,2.33
2023-08-02T10:12:44.517Z,2.10
2023-08-02T10:15:11.587Z,2.00
2023-08-02T10:17:39.144Z,2.27
2023-08-02T10:20:07.844Z,2.60
2023-08-02T10:22:35.531Z,2.30
2023-08-02T10:25:04.036Z,2.20
2023-08-02T10:27:31.911Z,2.63
2023-08-02T10:29:58.879Z,2.13
2023-08-02T10:32:26.253Z,2.40
2023-08-02T10:34:53.484Z,2.50
2023-08-02T10:37:21.659Z,2.47
2023-08-02T10:39:52.917Z,3.13
2023-08-02T10:42:22.388Z,2.57
2023-08-02T10:45:14.354Z,2.50
2023-08-02T10:47:41.347Z,3.10
2023-08-02T10:50:08.191Z,2.90
2023-08-02T10:52:36.258Z,2.93
2023-08-02T10:55:14.202Z,3.23
2023-08-02T10:57:57.941Z,3.73
2023-08-02T11:00:26.690Z,3.10
2023-08-02T11:02:54.412Z,3.30
2023-08-02T11:05:40.194Z,2.50
2023-08-02T11:08:07.626Z,2.90
2023-08-02T11:10:34.782Z,3.20
2023-08-02T11:13:02.912Z,4.63
2023-08-02T11:15:29.705Z,2.80
2023-08-02T11:17:57.057Z,2.57
2023-08-02T11:20:25.754Z,3.13
2023-08-02T11:22:52.643Z,2.50
2023-08-02T11:25:40.766Z,3.30
2023-08-02T11:28:07.929Z,2.93
2023-08-02T11:30:34.814Z,3.03
2023-08-02T11:33:01.739Z,2.50
2023-08-02T11:35:28.737Z,3.00
2023-08-02T11:37:55.773Z,3.40
2023-08-02T11:40:26.924Z,2.60
2023-08-02T11:42:54.340Z,3.17
2023-08-02T11:45:32.291Z,2.97
2023-08-02T11:48:10.021Z,3.33
2023-08-02T11:50:39.414Z,2.83
2023-08-02T11:53:08.347Z,3.50
2023-08-02T11:55:36.325Z,2.77
2023-08-02T11:58:04.696Z,3.10
2023-08-02T12:00:34.230Z,2.70
2023-08-02T12:03:11.482Z,2.70
2023-08-02T12:05:38.403Z,2.80
2023-08-02T12:08:09.398Z,2.63
2023-08-02T12:10:36.267Z,2.53
2023-08-02T12:13:11.654Z,2.20
2023-08-02T12:15:40.044Z,2.43
2023-08-02T12:18:07.679Z,2.10
2023-08-02T12:20:35.426Z,2.87
2023-08-02T12:23:02.608Z,2.90
2023-08-02T12:25:46.209Z,2.60
2023-08-02T12:28:14.326Z,2.60
2023-08-02T12:30:57.451Z,2.93
2023-08-02T12:33:24.228Z,2.90
2023-08-02T12:35:51.014Z,2.70
2023-08-02T12:38:17.836Z,3.00
2023-08-02T12:40:44.746Z,2.70
2023-08-02T12:43:11.561Z,2.83
2023-08-02T12:45:38.465Z,3.47
2023-08-02T12:48:06.783Z,2.70
2023-08-02T12:50:33.701Z,2.93
2023-08-02T12:53:00.455Z,2.70
2023-08-02T12:55:27.192Z,2.90
2023-08-02T12:57:54.042Z,3.17
2023-08-02T13:00:20.917Z,2.90
2023-08-02T13:02:47.752Z,2.90
2023-08-02T13:05:15.871Z,2.20
2023-08-02T13:07:44.528Z,2.77
2023-08-02T13:10:12.336Z,2.50
2023-08-02T13:12:39.823Z,2.30
2023-08-02T13:15:07.635Z,2.43
2023-08-02T13:17:34.445Z,2.40
2023-08-02T13:20:01.374Z,1.97
2023-08-02T13:22:29.492Z,2.10
2023-08-02T13:24:56.391Z,2.37
2023-08-02T13:27:23.434Z,2.20
2023-08-02T13:29:50.205Z,2.23
2023-08-02T13:32:16.947Z,2.80
2023-08-02T13:34:43.663Z,2.70
2023-08-02T13:37:10.409Z,1.80
2023-08-02T13:39:38.657Z,2.10
2023-08-02T13:42:05.865Z,1.43
2023-08-02T13:44:32.726Z,2.00
2023-08-02T13:47:00.581Z,2.40
2023-08-02T13:49:27.749Z,2.03
2023-08-02T13:51:54.537Z,1.97
2023-08-02T13:54:21.436Z,2.27
2023-08-02T13:56:49.520Z,1.70
2023-08-02T13:59:16.550Z,1.80
2023-08-02T14:01:43.329Z,1.83
2023-08-02T14:04:10.166Z,1.33
2023-08-02T14:06:36.975Z,1.20
2023-08-02T14:09:04.035Z,1.60
2023-08-02T14:11:30.811Z,1.50
2023-08-02T14:13:58.915Z,1.00
2023-08-02T14:16:25.694Z,1.17
2023-08-02T14:18:52.449Z,1.57
2023-08-02T14:21:19.203Z,1.30
2023-08-02T14:23:46.128Z,1.10
2023-08-02T14:26:12.986Z,0.70
2023-08-02T14:28:39.737Z,0.90
2023-08-02T14:31:07.904Z,1.00
2023-08-02T14:33:34.735Z,0.90
2023-08-02T14:36:01.570Z,0.90
2023-08-02T14:38:28.300Z,0.90
2023-08-02T14:40:55.165Z,0.63
2023-08-02T14:43:21.984Z,0.60
2023-08-02T14:45:48.803Z,0.80
2023-08-02T14:48:16.955Z,0.87
2023-08-02T14:50:43.742Z,1.23
2023-08-02T14:53:10.552Z,1.00
2023-08-02T14:55:38.073Z,0.60
2023-08-02T14:58:04.957Z,0.73
2023-08-02T15:00:31.826Z,0.70
2023-08-02T15:02:58.580Z,0.67
2023-08-02T15:05:26.781Z,0.63
2023-08-02T15:07:53.556Z,0.47
2023-08-02T15:10:20.384Z,1.77
2023-08-02T15:12:47.149Z,0.53
2023-08-02T15:15:13.884Z,0.50
2023-08-02T15:17:40.736Z,0.40
2023-08-02T15:20:08.682Z,1.00
2023-08-02T15:22:36.787Z,1.10
2023-08-02T15:25:03.816Z,0.60
2023-08-02T15:27:30.634Z,0.53
2023-08-02T15:29:57.438Z,0.53
2023-08-02T15:32:24.375Z,0.70
2023-08-02T15:34:51.191Z,0.50
2023-08-02T15:37:18.309Z,0.50
2023-08-02T15:39:46.581Z,0.40
2023-08-02T15:42:13.357Z,0.73
2023-08-02T15:44:40.525Z,1.03
2023-08-02T15:47:07.307Z,0.50
2023-08-02T15:49:34.085Z,0.60
2023-08-02T15:52:00.961Z,0.90
2023-08-02T15:54:27.696Z,0.80
2023-08-02T15:56:55.783Z,0.63
2023-08-02T15:59:22.657Z,0.50
2023-08-02T16:01:49.667Z,0.50
2023-08-02T16:04:16.432Z,0.70
2023-08-02T16:06:43.298Z,0.80
2023-08-02T16:09:10.091Z,0.90
2023-08-02T16:11:36.806Z,0.80
2023-08-02T16:14:05.033Z,1.10
2023-08-02T16:16:31.796Z,0.60
2023-08-02T16:18:58.592Z,0.90
2023-08-02T16:21:25.340Z,0.70
2023-08-02T16:23:52.078Z,0.70
2023-08-02T16:26:19.078Z,0.70
2023-08-02T16:28:45.901Z,0.70
2023-08-02T16:31:14.231Z,0.60
2023-08-02T16:33:41.047Z,0.83
2023-08-02T16:36:07.886Z,0.80
2023-08-02T16:38:34.636Z,0.80
2023-08-02T16:41:02.502Z,0.70
2023-08-02T16:43:31.094Z,0.77
2023-08-02T16:45:57.931Z,0.70
2023-08-02T16:48:26.027Z,0.90
2023-08-02T16:50:52.821Z,0.70
2023-08-02T16:53:19.581Z,0.60
2023-08-02T16:55:46.414Z,0.70
2023-08-02T16:58:13.137Z,0.70
2023-08-02T17:00:40.088Z,0.70
2023-08-02T17:03:06.873Z,0.90
2023-08-02T17:05:35.060Z,0.80
2023-08-02T17:08:01.838Z,1.20
2023-08-02T17:10:28.574Z,0.60
2023-08-02T17:12:55.309Z,0.60
2023-08-02T17:15:22.119Z,0.90
2023-08-02T17:17:49.012Z,1.03
2023-08-02T17:20:16.049Z,0.70
2023-08-02T17:22:44.183Z,0.60
2023-08-02T17:25:10.962Z,0.67
2023-08-02T17:27:37.658Z,0.40
2023-08-02T17:30:05.110Z,0.50
2023-08-02T17:32:31.925Z,0.57
2023-08-02T17:34:58.751Z,0.50
2023-08-02T17:37:25.642Z,0.40
2023-08-02T17:39:53.900Z,0.40
2023-08-02T17:42:20.942Z,0.57
2023-08-02T17:44:47.853Z,0.50
2023-08-02T17:47:14.682Z,0.60
2023-08-02T17:49:41.427Z,0.47
2023-08-02T17:52:08.550Z,0.60
2023-08-02T17:54:35.374Z,0.50
2023-08-02T17:57:03.616Z,0.63
2023-08-02T17:59:30.460Z,0.60
2023-08-02T18:01:57.244Z,0.60
2023-08-02T18:04:24.115Z,0.40
2023-08-02T18:06:51.358Z,0.50
2023-08-02T18:09:19.628Z,0.50
2023-08-02T18:11:46.421Z,0.40
2023-08-02T18:14:14.493Z,0.50
2023-08-02T18:16:41.341Z,0.40
2023-08-02T18:19:08.168Z,0.63
2023-08-02T18:21:35.053Z,0.97
2023-08-02T18:24:01.821Z,0.80
2023-08-02T18:26:28.626Z,0.50
2023-08-02T18:28:55.402Z,0.73
2023-08-02T18:31:23.532Z,0.50
2023-08-02T18:33:50.343Z,0.53
2023-08-02T18:36:17.379Z,0.53
2023-08-02T18:38:44.271Z,1.00
2023-08-02T18:41:19.161Z,0.70
2023-08-02T18:43:46.718Z,0.70
2023-08-02T18:46:13.708Z,0.80
2023-08-02T18:48:41.968Z,0.50
2023-08-02T18:51:08.881Z,0.50
2023-08-02T18:53:35.737Z,0.57
2023-08-02T18:56:02.580Z,0.73
2023-08-02T18:58:29.378Z,0.67
2023-08-02T19:00:56.149Z,0.60
2023-08-02T19:03:24.148Z,1.30
2023-08-02T19:05:58.215Z,1.00
2023-08-02T19:08:25.460Z,0.50
2023-08-02T19:10:52.666Z,0.50
2023-08-02T19:13:19.469Z,1.10
2023-08-02T19:15:47.188Z,0.80
2023-08-02T19:18:15.843Z,0.50
2023-08-02T19:20:42.982Z,0.73
2023-08-02T19:23:15.522Z,0.80
2023-08-02T19:25:42.441Z,1.13
2023-08-02T19:28:11.928Z,1.00
2023-08-02T19:30:38.889Z,1.10
2023-08-02T19:33:07.786Z,0.83
2023-08-02T19:35:34.538Z,1.00
2023-08-02T19:38:03.593Z,1.00
2023-08-02T19:40:31.992Z,1.10
2023-08-02T19:42:58.769Z,1.23
2023-08-02T19:45:25.569Z,1.17
2023-08-02T19:47:52.460Z,1.20
2023-08-02T19:50:19.416Z,0.67
2023-08-02T19:52:46.208Z,1.20
2023-08-02T19:55:13.147Z,1.10
2023-08-02T19:57:45.423Z,0.93
2023-08-02T20:00:15.625Z,0.90
2023-08-02T20:02:43.421Z,1.10
2023-08-02T20:05:15.765Z,1.33
2023-08-02T20:07:42.844Z,1.27
2023-08-02T20:10:28.743Z,1.20
2023-08-02T20:12:57.037Z,1.33
2023-08-02T20:15:23.771Z,1.07
2023-08-02T20:17:55.417Z,1.27
2023-08-02T20:20:22.352Z,1.23
2023-08-02T20:22:49.101Z,1.67
2023-08-02T20:25:15.973Z,1.30
2023-08-02T20:27:42.790Z,1.30
2023-08-02T20:30:16.191Z,1.40
2023-08-02T20:32:42.953Z,1.10
2023-08-02T20:35:11.584Z,1.10
2023-08-02T20:37:38.672Z,1.20
2023-08-02T20:40:07.254Z,0.80
2023-08-02T20:42:34.018Z,0.80
2023-08-02T20:45:01.382Z,1.13
2023-08-02T20:47:29.725Z,1.03
2023-08-02T20:49:56.726Z,0.80
2023-08-02T20:52:23.677Z,0.73
2023-08-02T20:54:50.599Z,0.87
2023-08-02T20:57:17.347Z,0.93
2023-08-02T20:59:44.186Z,1.00
2023-08-02T21:02:18.248Z,0.87
2023-08-02T21:04:46.751Z,0.87
2023-08-02T21:07:13.470Z,1.30
2023-08-02T21:09:40.411Z,1.00
2023-08-02T21:12:07.847Z,0.80
2023-08-02T21:14:34.600Z,1.30
2023-08-02T21:17:01.464Z,0.97
2023-08-02T21:19:30.608Z,0.80
2023-08-02T21:21:58.704Z,0.60
2023-08-02T21:24:25.673Z,1.10
2023-08-02T21:26:54.898Z,0.63
2023-08-02T21:29:22.569Z,1.07
2023-08-02T21:31:52.761Z,0.80
2023-08-02T21:34:20.115Z,1.20
2023-08-02T21:36:47.060Z,1.30
2023-08-02T21:39:16.107Z,0.93
2023-08-02T21:41:43.093Z,1.00
2023-08-02T21:44:10.889Z,0.80
2023-08-02T21:46:38.281Z,1.43
2023-08-02T21:49:05.433Z,1.20
2023-08-02T21:51:33.058Z,1.13
2023-08-02T21:53:59.856Z,0.90
2023-08-02T21:56:27.944Z,1.33
2023-08-02T21:58:57.757Z,1.40
2023-08-02T22:01:25.016Z,1.50
2023-08-02T22:03:52.108Z,1.20
2023-08-02T22:06:23.022Z,1.00
2023-08-02T22:08:50.367Z,0.80
2023-08-02T22:11:17.675Z,2.20
2023-08-02T22:13:47.028Z,1.23
2023-08-02T22:16:15.117Z,1.20
2023-08-02T22:18:42.462Z,1.03
2023-08-02T22:21:09.444Z,1.40
2023-08-02T22:23:36.735Z,1.10
2023-08-02T22:26:03.970Z,1.10
2023-08-02T22:28:31.008Z,1.20
2023-08-02T22:30:59.125Z,1.53
2023-08-02T22:33:26.013Z,0.93
2023-08-02T22:35:52.754Z,0.90
2023-08-02T22:38:22.963Z,0.90
2023-08-02T22:40:54.478Z,1.50
2023-08-02T22:43:21.268Z,1.00
2023-08-02T22:45:48.060Z,1.00
2023-08-02T22:48:54.634Z,1.03
2023-08-02T22:51:03.031Z,1.10
2023-08-02T22:53:29.838Z,0.83
2023-08-02T22:55:57.205Z,1.33
2023-08-02T22:58:24.510Z,1.00
2023-08-02T23:00:51.285Z,1.13
2023-08-02T23:03:36.263Z,1.00
2023-08-02T23:06:04.923Z,0.97
2023-08-02T23:08:34.777Z,1.53
2023-08-02T23:11:01.527Z,1.23
2023-08-02T23:13:28.260Z,1.13
2023-08-02T23:15:55.058Z,0.93
2023-08-02T23:18:23.375Z,0.90
2023-08-02T23:20:51.972Z,1.40
2023-08-02T23:23:24.367Z,1.13
2023-08-02T23:25:58.297Z,1.00
2023-08-02T23:28:26.850Z,0.97
2023-08-02T23:30:54.044Z,1.40
2023-08-02T23:33:20.775Z,1.07
2023-08-02T23:35:47.502Z,0.97
2023-08-02T23:38:15.721Z,0.70
2023-08-02T23:40:42.533Z,0.50
2023-08-02T23:43:09.277Z,1.00
2023-08-02T23:45:36.089Z,1.33
2023-08-02T23:48:02.849Z,1.00
2023-08-02T23:50:29.651Z,0.73
2023-08-02T23:52:56.454Z,1.03
2023-08-02T23:55:24.568Z,1.00
2023-08-02T23:57:51.658Z,1.00
